Airport View

Enter AWOS ICAO identifier for current METAR.

ex. KFNL

KVNC 171320Z AUTO 03006KT 9SM OVC009 12/10 A2999 RMK AO2

17 Nov 2019 13:20

Frequency: 119.275

Phone: 941-486-2718

Other Area AWOS: KSRQ - KPGD - KFMY - KSPG

TAF AMD KSRQ 171311Z 1713/1812 01010KT P6SM OVC009 FM171400 01008KT P6SM SCT015 TEMPO 1714/1716 BKN015 FM171600 35009KT P6SM SCT030 SCT250 FM172300 35005KT P6SM SCT250